Time;durP1;ratioP1;P1;durP2;ratioP2;P2;SDS_P1;SDS_P2;PMS_P1;PMS_P2;Temp;Humidity;BMP_temperature;BMP_pressure;BME280_temperature;BME280_humidity;BME280_pressure;Samples;Min_cycle;Max_cycle;Signal;HPM_P1;HPM_P2
2022/04/18 00:01:54;;;;;;;3.70;3.40;;;;;;;;;;5024009;28;20220;-53
2022/04/18 00:04:21;;;;;;;3.73;3.23;;;;;;;;;;5025292;28;20190;-53
2022/04/18 00:06:49;;;;;;;3.90;3.60;;;;;;;;;;5029580;28;20269;-53
2022/04/18 00:09:16;;;;;;;4.40;4.00;;;;;;;;;;5031268;28;20166;-53
2022/04/18 00:11:45;;;;;;;3.73;3.43;;;;;;;;;;5024046;28;20185;-53
2022/04/18 00:14:14;;;;;;;3.43;3.17;;;;;;;;;;5026228;28;20217;-53
2022/04/18 00:16:43;;;;;;;3.65;3.35;;;;;;;;;;5043495;28;20483;-53
2022/04/18 00:19:10;;;;;;;4.10;3.80;;;;;;;;;;5015833;28;20625;-53
2022/04/18 00:21:39;;;;;;;3.77;3.13;;;;;;;;;;5019703;28;20182;-53
2022/04/18 00:24:06;;;;;;;3.50;3.20;;;;;;;;;;5029653;28;20173;-53
2022/04/18 00:26:37;;;;;;;3.40;3.10;;;;;;;;;;5028973;28;20178;-53
2022/04/18 00:29:03;;;;;;;3.80;3.50;;;;;;;;;;5025383;28;20529;-53
2022/04/18 00:31:29;;;;;;;3.77;3.47;;;;;;;;;;5035375;28;20218;-53
2022/04/18 00:33:55;;;;;;;4.33;3.50;;;;;;;;;;5010098;28;20178;-53
2022/04/18 00:36:22;;;;;;;4.03;3.73;;;;;;;;;;5022509;28;20190;-53
2022/04/18 00:38:48;;;;;;;2.83;2.63;;;;;;;;;;5025754;28;20181;-53
2022/04/18 00:41:15;;;;;;;3.63;3.33;;;;;;;;;;5016522;28;20185;-53
2022/04/18 00:43:42;;;;;;;3.60;3.27;;;;;;;;;;5042666;28;20754;-53
2022/04/18 00:46:15;;;;;;;4.50;4.10;;;;;;;;;;5015346;28;20174;-53
2022/04/18 00:48:41;;;;;;;3.37;3.07;;;;;;;;;;5020768;28;20175;-53
2022/04/18 00:51:08;;;;;;;3.33;3.03;;;;;;;;;;5016062;28;20188;-53
2022/04/18 00:53:37;;;;;;;3.30;3.00;;;;;;;;;;5019193;28;20258;-53
2022/04/18 00:56:04;;;;;;;3.27;3.03;;;;;;;;;;5024480;28;20183;-54
2022/04/18 00:58:30;;;;;;;3.23;3.03;;;;;;;;;;5036086;28;20203;-53
2022/04/18 01:00:56;;;;;;;3.17;2.87;;;;;;;;;;5011083;28;20193;-53
2022/04/18 01:03:26;;;;;;;3.40;3.20;;;;;;;;;;5009035;28;20198;-53
2022/04/18 01:05:52;;;;;;;2.90;2.70;;;;;;;;;;5027322;28;20800;-53
2022/04/18 01:08:18;;;;;;;3.30;2.97;;;;;;;;;;5010239;28;20514;-53
2022/04/18 01:10:48;;;;;;;5.67;2.90;;;;;;;;;;5012740;28;20823;-53
2022/04/18 01:13:14;;;;;;;3.10;2.90;;;;;;;;;;5021358;28;20572;-53
2022/04/18 01:15:40;;;;;;;2.87;2.67;;;;;;;;;;5014196;28;20191;-53
2022/04/18 01:18:07;;;;;;;3.10;2.80;;;;;;;;;;5024219;28;20194;-53
2022/04/18 01:20:34;;;;;;;3.10;2.90;;;;;;;;;;5017787;28;20260;-53
2022/04/18 01:23:06;;;;;;;2.93;2.73;;;;;;;;;;5015242;28;20700;-54
2022/04/18 01:31:03;;;;;;;3.10;2.90;;;;;;;;;;5017388;28;20712;-53
2022/04/18 01:33:29;;;;;;;2.70;2.50;;;;;;;;;;5025521;28;20202;-53
2022/04/18 01:35:56;;;;;;;3.83;3.50;;;;;;;;;;5022491;28;20217;-53
2022/04/18 01:38:22;;;;;;;2.90;2.70;;;;;;;;;;5011807;28;20279;-53
2022/04/18 01:40:49;;;;;;;2.80;2.60;;;;;;;;;;5028806;28;20252;-53
2022/04/18 01:43:15;;;;;;;3.17;2.87;;;;;;;;;;5027940;28;20210;-53
2022/04/18 01:45:41;;;;;;;3.00;2.80;;;;;;;;;;5029384;28;20181;-53
2022/04/18 01:48:08;;;;;;;2.93;2.73;;;;;;;;;;5017879;28;20297;-53
2022/04/18 01:50:34;;;;;;;3.13;2.87;;;;;;;;;;5013959;28;20186;-53
2022/04/18 01:53:00;;;;;;;3.00;2.80;;;;;;;;;;5027971;28;20597;-53
2022/04/18 01:55:26;;;;;;;2.60;2.40;;;;;;;;;;5027939;28;20645;-53
2022/04/18 01:57:52;;;;;;;3.10;2.80;;;;;;;;;;5027710;28;20224;-53
2022/04/18 02:00:18;;;;;;;3.10;2.80;;;;;;;;;;5019573;28;20197;-53
2022/04/18 02:02:44;;;;;;;3.37;2.60;;;;;;;;;;5024360;28;20705;-53
2022/04/18 02:05:10;;;;;;;2.93;2.73;;;;;;;;;;5018822;28;20634;-53
2022/04/18 02:07:45;;;;;;;3.00;2.80;;;;;;;;;;5035387;28;20200;-53
2022/04/18 02:10:12;;;;;;;3.47;3.10;;;;;;;;;;5024612;28;20210;-53
2022/04/18 02:12:38;;;;;;;2.83;2.63;;;;;;;;;;5027282;28;20189;-53
2022/04/18 02:15:05;;;;;;;2.63;2.43;;;;;;;;;;5021894;28;20194;-53
2022/04/18 02:17:31;;;;;;;2.90;2.40;;;;;;;;;;5025234;28;20239;-53
2022/04/18 02:20:01;;;;;;;2.90;2.70;;;;;;;;;;5007912;28;20178;-53
2022/04/18 02:22:28;;;;;;;2.97;2.77;;;;;;;;;;5025694;28;20227;-53
2022/04/18 02:24:57;;;;;;;2.73;2.53;;;;;;;;;;5013106;28;20277;-53
2022/04/18 02:27:23;;;;;;;2.70;2.50;;;;;;;;;;5016898;28;20190;-53
2022/04/18 02:29:50;;;;;;;3.13;2.73;;;;;;;;;;5043447;28;20191;-53
2022/04/18 02:35:01;;;;;;;2.60;2.40;;;;;;;;;;5017853;28;20200;-53
2022/04/18 02:37:27;;;;;;;3.00;2.80;;;;;;;;;;5016784;28;20182;-53
2022/04/18 02:39:54;;;;;;;2.50;2.30;;;;;;;;;;5055920;28;20202;-53
2022/04/18 02:42:20;;;;;;;2.60;2.40;;;;;;;;;;5022324;28;20771;-53
2022/04/18 02:44:48;;;;;;;2.57;2.37;;;;;;;;;;5008054;28;20276;-53
2022/04/18 02:47:14;;;;;;;2.80;2.60;;;;;;;;;;5037288;28;20769;-53
2022/04/18 02:49:43;;;;;;;2.70;2.50;;;;;;;;;;5025127;28;20189;-53
2022/04/18 02:52:09;;;;;;;2.70;2.50;;;;;;;;;;5016625;28;20221;-53
2022/04/18 02:54:36;;;;;;;2.93;2.63;;;;;;;;;;5007591;28;20190;-53
2022/04/18 02:57:05;;;;;;;2.80;2.60;;;;;;;;;;5033761;28;20204;-53
2022/04/18 02:59:32;;;;;;;2.97;2.77;;;;;;;;;;5011226;28;20197;-53
2022/04/18 03:02:01;;;;;;;2.60;2.40;;;;;;;;;;5027311;28;20281;-53
2022/04/18 03:04:27;;;;;;;2.60;2.40;;;;;;;;;;5011136;28;20193;-53
2022/04/18 03:06:54;;;;;;;2.67;2.47;;;;;;;;;;5029882;28;20182;-53
2022/04/18 03:09:20;;;;;;;2.70;2.50;;;;;;;;;;5013953;28;20205;-53
2022/04/18 03:11:46;;;;;;;2.67;2.47;;;;;;;;;;5019305;28;20177;-53
2022/04/18 03:14:12;;;;;;;2.50;2.30;;;;;;;;;;5015733;28;20189;-53
2022/04/18 03:16:39;;;;;;;2.20;2.10;;;;;;;;;;5027655;28;20205;-53
2022/04/18 03:19:05;;;;;;;17.13;16.40;;;;;;;;;;5018143;28;20654;-53
2022/04/18 03:21:31;;;;;;;2.43;2.30;;;;;;;;;;5016962;28;20192;-53
2022/04/18 03:23:57;;;;;;;2.80;2.50;;;;;;;;;;5027213;28;20198;-53
2022/04/18 03:26:23;;;;;;;2.60;2.40;;;;;;;;;;5025423;28;20201;-53
2022/04/18 03:28:50;;;;;;;2.77;2.47;;;;;;;;;;5014522;28;20182;-53
2022/04/18 03:31:17;;;;;;;4.83;4.63;;;;;;;;;;5020035;28;20728;-53
2022/04/18 03:33:43;;;;;;;2.67;2.47;;;;;;;;;;5024515;28;20186;-53
2022/04/18 03:41:39;;;;;;;2.40;2.20;;;;;;;;;;5032640;28;20192;-53
2022/04/18 03:44:06;;;;;;;2.77;2.57;;;;;;;;;;5017124;28;20272;-53
2022/04/18 03:46:32;;;;;;;4.03;2.57;;;;;;;;;;5011434;28;20277;-53
2022/04/18 03:48:59;;;;;;;2.60;2.40;;;;;;;;;;5016974;28;20198;-53
2022/04/18 03:51:31;;;;;;;2.60;2.40;;;;;;;;;;5013120;28;20614;-53
2022/04/18 03:54:00;;;;;;;2.57;2.43;;;;;;;;;;5017629;28;20246;-53
2022/04/18 03:56:27;;;;;;;2.90;2.70;;;;;;;;;;5012591;28;20186;-53
2022/04/18 03:58:53;;;;;;;2.83;2.63;;;;;;;;;;5019133;28;20672;-53
2022/04/18 04:01:20;;;;;;;7.73;7.33;;;;;;;;;;5018359;28;20185;-53
2022/04/18 04:03:46;;;;;;;2.70;2.50;;;;;;;;;;5017315;28;20210;-53
2022/04/18 04:06:15;;;;;;;6.60;6.27;;;;;;;;;;5032513;28;20272;-53
2022/04/18 04:08:42;;;;;;;2.97;2.40;;;;;;;;;;5023930;28;20201;-52
2022/04/18 04:11:08;;;;;;;2.63;2.43;;;;;;;;;;5043403;28;20237;-53
2022/04/18 04:13:35;;;;;;;2.80;2.40;;;;;;;;;;5016911;28;20239;-53
2022/04/18 04:16:01;;;;;;;3.17;2.63;;;;;;;;;;5020071;28;20201;-53
2022/04/18 04:18:28;;;;;;;2.67;2.33;;;;;;;;;;5026395;28;20601;-53
2022/04/18 04:20:54;;;;;;;3.60;2.30;;;;;;;;;;5023355;28;20189;-53
2022/04/18 04:23:27;;;;;;;5.20;4.90;;;;;;;;;;5028133;28;20251;-54
2022/04/18 04:25:53;;;;;;;2.70;2.50;;;;;;;;;;5031290;28;20189;-53
2022/04/18 04:28:19;;;;;;;2.80;2.60;;;;;;;;;;5014894;28;20182;-53
2022/04/18 04:30:49;;;;;;;2.50;2.30;;;;;;;;;;5020718;28;20306;-54
2022/04/18 04:33:15;;;;;;;8.03;7.57;;;;;;;;;;5008834;28;20281;-53
2022/04/18 04:35:41;;;;;;;2.73;2.53;;;;;;;;;;5030057;28;20190;-53
2022/04/18 04:38:07;;;;;;;2.63;2.43;;;;;;;;;;5012125;28;20185;-53
2022/04/18 04:40:37;;;;;;;2.60;2.40;;;;;;;;;;5014934;28;20834;-53
2022/04/18 04:43:03;;;;;;;2.60;2.40;;;;;;;;;;5024960;28;20240;-53
2022/04/18 04:45:31;;;;;;;2.30;2.20;;;;;;;;;;5034670;28;20186;-53
2022/04/18 04:48:00;;;;;;;2.60;2.40;;;;;;;;;;5019305;28;20641;-53
2022/04/18 04:50:26;;;;;;;2.57;2.37;;;;;;;;;;5018963;28;20240;-53
2022/04/18 04:52:53;;;;;;;3.23;2.53;;;;;;;;;;5019618;28;20186;-53
2022/04/18 04:55:19;;;;;;;2.90;2.40;;;;;;;;;;5034363;28;20269;-53
2022/04/18 04:57:48;;;;;;;2.43;2.23;;;;;;;;;;5029071;28;20543;-53
2022/04/18 05:00:14;;;;;;;3.80;3.50;;;;;;;;;;5018239;28;20198;-53
2022/04/18 05:02:40;;;;;;;2.40;2.20;;;;;;;;;;5026772;28;20208;-53
2022/04/18 05:05:07;;;;;;;2.33;2.23;;;;;;;;;;5017584;28;20186;-53
2022/04/18 05:07:33;;;;;;;2.50;2.30;;;;;;;;;;5013844;28;20202;-53
2022/04/18 05:10:00;;;;;;;2.50;2.30;;;;;;;;;;5011189;28;20210;-53
2022/04/18 05:12:28;;;;;;;2.40;2.20;;;;;;;;;;5014138;28;20197;-54
2022/04/18 05:14:54;;;;;;;2.67;2.47;;;;;;;;;;5017156;28;20655;-53
2022/04/18 05:17:20;;;;;;;2.87;2.57;;;;;;;;;;5039124;28;20261;-53
2022/04/18 05:19:47;;;;;;;2.67;2.43;;;;;;;;;;5020312;28;20711;-54
2022/04/18 05:22:13;;;;;;;2.83;2.63;;;;;;;;;;5021485;28;20581;-53
2022/04/18 05:24:39;;;;;;;2.60;2.40;;;;;;;;;;5021899;28;20177;-53
2022/04/18 05:27:07;;;;;;;2.37;2.20;;;;;;;;;;5031626;28;20662;-53
2022/04/18 05:29:33;;;;;;;2.30;2.10;;;;;;;;;;5039013;28;20221;-53
2022/04/18 05:32:03;;;;;;;2.40;2.20;;;;;;;;;;5025111;28;20538;-53
2022/04/18 05:34:30;;;;;;;3.63;3.17;;;;;;;;;;5007525;28;20186;-53
2022/04/18 05:36:59;;;;;;;2.70;2.50;;;;;;;;;;5013665;28;20182;-53
2022/04/18 05:39:26;;;;;;;2.90;2.37;;;;;;;;;;5021302;28;20601;-53
2022/04/18 05:41:52;;;;;;;2.40;2.20;;;;;;;;;;5019387;28;20421;-53
2022/04/18 05:44:18;;;;;;;2.50;2.30;;;;;;;;;;5026993;28;20609;-53
2022/04/18 05:46:45;;;;;;;2.40;2.20;;;;;;;;;;5020490;28;20185;-53
2022/04/18 05:49:11;;;;;;;2.53;2.33;;;;;;;;;;5026218;28;20206;-53
2022/04/18 05:51:43;;;;;;;3.20;2.27;;;;;;;;;;5017345;28;20272;-53
2022/04/18 05:54:10;;;;;;;2.20;2.03;;;;;;;;;;5015611;28;20244;-53
2022/04/18 05:56:37;;;;;;;3.03;2.30;;;;;;;;;;5014329;28;20692;-53
2022/04/18 05:59:03;;;;;;;2.37;2.07;;;;;;;;;;5019205;28;20656;-53
2022/04/18 06:01:29;;;;;;;2.67;2.47;;;;;;;;;;5013258;28;20182;-53
2022/04/18 06:03:56;;;;;;;2.67;2.47;;;;;;;;;;5027918;28;20197;-53
2022/04/18 06:06:22;;;;;;;2.57;2.37;;;;;;;;;;5023393;28;20189;-53
2022/04/18 06:08:48;;;;;;;2.50;2.30;;;;;;;;;;5016010;28;20182;-53
2022/04/18 06:11:18;;;;;;;2.57;2.37;;;;;;;;;;5011804;28;20208;-53
2022/04/18 06:13:44;;;;;;;2.50;2.30;;;;;;;;;;5022473;28;20194;-53
2022/04/18 06:16:16;;;;;;;2.63;2.40;;;;;;;;;;5014062;28;20197;-53
2022/04/18 06:18:49;;;;;;;2.27;2.17;;;;;;;;;;5012661;28;20217;-54
2022/04/18 06:21:15;;;;;;;2.07;1.97;;;;;;;;;;5041169;28;20214;-54
2022/04/18 06:23:41;;;;;;;2.50;2.30;;;;;;;;;;5012471;28;20531;-53
2022/04/18 06:26:07;;;;;;;2.47;2.27;;;;;;;;;;5013036;28;20200;-53
2022/04/18 06:28:33;;;;;;;2.60;2.40;;;;;;;;;;5012676;28;20183;-53
2022/04/18 06:30:59;;;;;;;3.93;2.63;;;;;;;;;;5010678;28;20217;-53
2022/04/18 06:33:28;;;;;;;2.60;2.40;;;;;;;;;;5011919;28;20703;-53
2022/04/18 06:35:54;;;;;;;2.30;2.20;;;;;;;;;;5023047;28;20666;-54
2022/04/18 06:38:20;;;;;;;2.63;2.40;;;;;;;;;;5013824;28;20185;-54
2022/04/18 06:40:46;;;;;;;2.43;2.20;;;;;;;;;;5027622;28;20194;-54
2022/04/18 06:43:12;;;;;;;3.60;2.37;;;;;;;;;;5016838;28;20198;-53
2022/04/18 06:45:38;;;;;;;2.30;2.10;;;;;;;;;;5011432;28;20177;-53
2022/04/18 06:48:04;;;;;;;2.83;2.63;;;;;;;;;;5009600;28;20273;-53
2022/04/18 06:50:31;;;;;;;3.05;2.85;;;;;;;;;;5012520;28;20968;-53
2022/04/18 06:52:57;;;;;;;3.00;2.70;;;;;;;;;;5026761;28;20185;-53
2022/04/18 06:55:23;;;;;;;2.47;2.37;;;;;;;;;;5016353;28;20188;-53
2022/04/18 06:57:50;;;;;;;2.77;2.37;;;;;;;;;;5025801;28;20547;-53
2022/04/18 07:00:17;;;;;;;2.40;2.20;;;;;;;;;;5014046;28;20189;-53
2022/04/18 07:02:46;;;;;;;3.30;2.80;;;;;;;;;;5016674;28;20277;-53
2022/04/18 07:05:12;;;;;;;2.57;2.37;;;;;;;;;;5020563;28;20173;-53
2022/04/18 07:07:38;;;;;;;2.33;2.23;;;;;;;;;;5017121;28;20181;-53
2022/04/18 07:10:04;;;;;;;2.50;2.30;;;;;;;;;;5012513;28;20520;-53
2022/04/18 07:12:31;;;;;;;2.73;2.53;;;;;;;;;;5022029;28;20185;-53
2022/04/18 07:15:00;;;;;;;2.83;2.50;;;;;;;;;;5015297;28;20206;-53
2022/04/18 07:17:26;;;;;;;2.40;2.17;;;;;;;;;;5016942;28;20309;-54
2022/04/18 07:19:53;;;;;;;2.73;2.53;;;;;;;;;;5010047;28;20183;-54
2022/04/18 07:22:19;;;;;;;2.00;1.90;;;;;;;;;;5003732;28;20222;-53
2022/04/18 07:24:45;;;;;;;2.30;2.10;;;;;;;;;;5015102;28;20369;-54
2022/04/18 07:27:20;;;;;;;2.10;1.97;;;;;;;;;;5018307;28;20184;-54
2022/04/18 07:29:47;;;;;;;2.47;2.13;;;;;;;;;;5011645;28;20182;-54
2022/04/18 07:32:13;;;;;;;2.57;2.33;;;;;;;;;;5018664;28;20633;-54
2022/04/18 07:34:39;;;;;;;2.83;2.13;;;;;;;;;;5015982;28;20194;-53
2022/04/18 07:37:05;;;;;;;2.80;2.60;;;;;;;;;;5018724;28;20574;-52
2022/04/18 07:39:32;;;;;;;2.70;2.50;;;;;;;;;;5014089;28;20179;-52
2022/04/18 07:42:04;;;;;;;2.57;2.37;;;;;;;;;;5024713;28;20183;-52
2022/04/18 07:44:30;;;;;;;2.63;2.43;;;;;;;;;;5018216;28;20229;-52
2022/04/18 07:46:58;;;;;;;2.60;2.40;;;;;;;;;;5014882;28;20240;-52
2022/04/18 07:49:24;;;;;;;2.70;2.50;;;;;;;;;;5015646;28;20240;-53
2022/04/18 07:51:51;;;;;;;2.40;2.20;;;;;;;;;;5022311;28;20251;-53
2022/04/18 07:54:19;;;;;;;2.83;2.13;;;;;;;;;;5026985;28;20656;-53
2022/04/18 07:56:45;;;;;;;3.33;2.37;;;;;;;;;;5021447;28;20198;-53
2022/04/18 07:59:12;;;;;;;2.20;2.07;;;;;;;;;;5022464;28;20193;-53
2022/04/18 08:01:38;;;;;;;5.00;2.50;;;;;;;;;;5028598;28;20213;-53
2022/04/18 08:04:05;;;;;;;2.47;2.10;;;;;;;;;;5014100;28;20198;-49
2022/04/18 08:06:32;;;;;;;2.63;2.43;;;;;;;;;;5020414;28;20170;-51
2022/04/18 08:08:58;;;;;;;3.60;2.67;;;;;;;;;;5019601;28;20217;-51
2022/04/18 08:11:25;;;;;;;2.37;2.17;;;;;;;;;;5023521;28;20811;-50
2022/04/18 08:13:51;;;;;;;2.57;2.37;;;;;;;;;;5016518;28;20193;-52
2022/04/18 08:16:19;;;;;;;2.50;2.20;;;;;;;;;;5025446;28;20201;-52
2022/04/18 08:18:45;;;;;;;4.53;2.73;;;;;;;;;;5035011;28;20194;-49
2022/04/18 08:21:12;;;;;;;2.73;2.53;;;;;;;;;;5032202;28;20539;-52
2022/04/18 08:23:39;;;;;;;2.77;2.47;;;;;;;;;;5017315;28;20213;-51
2022/04/18 08:26:05;;;;;;;4.50;2.70;;;;;;;;;;5016766;28;20182;-50
2022/04/18 08:28:32;;;;;;;2.90;2.70;;;;;;;;;;5017283;28;20416;-51
2022/04/18 08:30:59;;;;;;;5.00;2.80;;;;;;;;;;5021550;28;20229;-51
2022/04/18 08:33:25;;;;;;;2.97;2.73;;;;;;;;;;5016940;28;20234;-50
2022/04/18 08:35:52;;;;;;;3.20;2.90;;;;;;;;;;5022465;28;20321;-48
2022/04/18 08:38:18;;;;;;;3.37;3.07;;;;;;;;;;5019206;28;20707;-50
2022/04/18 08:40:45;;;;;;;4.23;3.83;;;;;;;;;;5018824;28;20191;-50
2022/04/18 08:43:11;;;;;;;3.47;3.23;;;;;;;;;;5016202;28;20208;-51
2022/04/18 08:45:38;;;;;;;4.83;3.43;;;;;;;;;;5016643;28;20183;-51
2022/04/18 08:53:36;;;;;;;10.07;4.70;;;;;;;;;;5019603;28;20224;-50
2022/04/18 08:56:03;;;;;;;3.83;3.53;;;;;;;;;;5015436;28;20190;-50
2022/04/18 08:58:29;;;;;;;3.70;3.40;;;;;;;;;;5013107;28;20701;-50
2022/04/18 09:00:56;;;;;;;3.63;3.37;;;;;;;;;;5017644;28;20277;-50
2022/04/18 09:03:22;;;;;;;5.07;3.83;;;;;;;;;;5012738;28;20214;-50
2022/04/18 09:05:49;;;;;;;4.43;3.10;;;;;;;;;;4998594;28;20184;-49
2022/04/18 09:08:15;;;;;;;5.40;3.43;;;;;;;;;;5028169;28;20563;-51
2022/04/18 09:10:42;;;;;;;4.90;3.47;;;;;;;;;;5038511;28;20198;-50
2022/04/18 09:13:10;;;;;;;3.50;2.97;;;;;;;;;;5026665;28;20182;-50
2022/04/18 09:15:36;;;;;;;2.90;2.70;;;;;;;;;;5013348;28;20209;-50
2022/04/18 09:18:17;;;;;;;3.37;3.07;;;;;;;;;;5011379;28;20241;-50
2022/04/18 09:20:50;;;;;;;3.23;2.93;;;;;;;;;;5032871;28;20655;-50
2022/04/18 09:23:28;;;;;;;3.40;3.10;;;;;;;;;;5010249;28;20693;-51
2022/04/18 09:25:59;;;;;;;3.77;3.50;;;;;;;;;;5017887;28;20174;-50
2022/04/18 09:28:27;;;;;;;3.27;3.00;;;;;;;;;;5016537;28;20638;-51
2022/04/18 09:30:58;;;;;;;3.33;3.13;;;;;;;;;;5021927;28;20218;-50
2022/04/18 09:33:28;;;;;;;3.63;3.40;;;;;;;;;;5007283;28;20622;-50
2022/04/18 09:36:05;;;;;;;3.27;3.00;;;;;;;;;;5008705;28;20194;-50
2022/04/18 09:38:31;;;;;;;3.53;2.90;;;;;;;;;;5008395;28;20214;-50
2022/04/18 09:40:57;;;;;;;3.00;2.80;;;;;;;;;;5010557;28;20316;-51
2022/04/18 09:43:24;;;;;;;3.53;3.23;;;;;;;;;;5013477;28;20206;-51
2022/04/18 09:45:51;;;;;;;3.37;2.57;;;;;;;;;;5024182;28;20721;-50
2022/04/18 09:48:17;;;;;;;3.03;2.70;;;;;;;;;;5013619;28;20269;-51
2022/04/18 09:50:59;;;;;;;3.00;2.57;;;;;;;;;;5026944;28;20917;-51
2022/04/18 09:53:26;;;;;;;2.73;2.47;;;;;;;;;;5040187;28;20194;-50
2022/04/18 09:55:56;;;;;;;3.17;2.97;;;;;;;;;;5018734;28;20256;-52
2022/04/18 09:58:22;;;;;;;3.97;2.70;;;;;;;;;;5017693;28;20213;-50
2022/04/18 10:00:49;;;;;;;3.33;2.80;;;;;;;;;;5011865;28;20185;-51
2022/04/18 10:03:15;;;;;;;3.63;3.33;;;;;;;;;;5012542;28;20214;-50
2022/04/18 10:05:42;;;;;;;5.03;3.07;;;;;;;;;;5012595;28;20186;-50
2022/04/18 10:08:08;;;;;;;3.10;2.80;;;;;;;;;;5009352;28;20626;-51
2022/04/18 10:10:35;;;;;;;3.07;2.80;;;;;;;;;;5011867;28;20181;-51
2022/04/18 10:13:01;;;;;;;2.70;2.50;;;;;;;;;;5019444;28;20548;-51
2022/04/18 10:15:27;;;;;;;2.97;2.70;;;;;;;;;;5022225;28;20347;-51
2022/04/18 10:17:57;;;;;;;2.83;2.63;;;;;;;;;;5028452;28;20205;-51
2022/04/18 10:20:39;;;;;;;3.03;2.70;;;;;;;;;;5027247;28;20178;-50
2022/04/18 10:23:24;;;;;;;4.57;2.80;;;;;;;;;;5017212;28;20297;-51
2022/04/18 10:25:59;;;;;;;2.70;2.50;;;;;;;;;;5019699;28;20648;-51
2022/04/18 10:28:27;;;;;;;3.27;2.70;;;;;;;;;;5029001;28;20182;-51
2022/04/18 10:30:58;;;;;;;3.00;2.77;;;;;;;;;;5052794;28;20218;-51
2022/04/18 10:33:25;;;;;;;2.90;2.70;;;;;;;;;;5021954;28;20569;-51
2022/04/18 10:35:55;;;;;;;3.33;3.03;;;;;;;;;;5026389;28;20177;-51
2022/04/18 10:38:25;;;;;;;2.33;2.13;;;;;;;;;;5017823;28;20206;-52
2022/04/18 10:41:14;;;;;;;2.23;2.07;;;;;;;;;;5027801;28;20656;-52
2022/04/18 10:44:01;;;;;;;2.53;2.33;;;;;;;;;;5026525;28;20220;-52
2022/04/18 10:46:27;;;;;;;2.77;2.57;;;;;;;;;;5013999;28;20197;-52
2022/04/18 10:49:27;;;;;;;2.60;2.40;;;;;;;;;;5032129;28;20191;-52
2022/04/18 10:51:54;;;;;;;2.37;2.17;;;;;;;;;;5019370;28;20193;-52
2022/04/18 10:54:30;;;;;;;2.87;2.47;;;;;;;;;;5000888;28;20186;-52
2022/04/18 10:57:13;;;;;;;2.40;2.20;;;;;;;;;;5009926;28;20256;-52
2022/04/18 10:59:45;;;;;;;3.97;2.33;;;;;;;;;;5010819;28;20190;-53
2022/04/18 11:02:34;;;;;;;2.93;2.73;;;;;;;;;;5028089;28;20187;-52
2022/04/18 11:05:04;;;;;;;2.40;2.20;;;;;;;;;;5007787;28;20560;-53
2022/04/18 11:07:40;;;;;;;2.30;2.10;;;;;;;;;;5021187;28;20175;-53
2022/04/18 11:10:23;;;;;;;2.80;2.60;;;;;;;;;;5025650;28;20189;-53
2022/04/18 11:13:02;;;;;;;3.20;2.90;;;;;;;;;;5023831;28;20191;-52
2022/04/18 11:15:28;;;;;;;2.60;2.40;;;;;;;;;;5023476;28;20653;-53
2022/04/18 11:18:01;;;;;;;2.70;2.50;;;;;;;;;;5020975;28;20224;-53
2022/04/18 11:20:35;;;;;;;3.20;2.90;;;;;;;;;;5014801;28;20240;-53
2022/04/18 11:23:21;;;;;;;2.87;2.67;;;;;;;;;;5022246;28;20296;-53
2022/04/18 11:26:01;;;;;;;2.77;2.57;;;;;;;;;;5023329;28;20228;-52
2022/04/18 11:28:39;;;;;;;2.93;2.73;;;;;;;;;;5036150;28;20185;-53
2022/04/18 11:31:32;;;;;;;2.70;2.50;;;;;;;;;;5016386;28;20209;-52
2022/04/18 11:34:02;;;;;;;2.90;2.70;;;;;;;;;;5021177;28;20257;-53
2022/04/18 11:36:29;;;;;;;3.70;3.00;;;;;;;;;;5019917;28;20717;-53
2022/04/18 11:39:05;;;;;;;2.93;2.70;;;;;;;;;;5023693;28;20232;-53
2022/04/18 11:41:31;;;;;;;3.10;2.80;;;;;;;;;;5023800;28;20497;-53
2022/04/18 11:43:58;;;;;;;2.87;2.50;;;;;;;;;;5028617;28;20210;-53
2022/04/18 11:46:31;;;;;;;3.70;3.07;;;;;;;;;;5023519;28;20761;-53
2022/04/18 11:48:58;;;;;;;2.63;2.43;;;;;;;;;;5014690;28;20709;-52
2022/04/18 11:51:43;;;;;;;3.97;3.03;;;;;;;;;;5018203;28;20210;-53
2022/04/18 11:54:09;;;;;;;3.60;2.83;;;;;;;;;;5021813;28;20218;-53
2022/04/18 11:56:36;;;;;;;3.33;3.03;;;;;;;;;;5027850;28;20194;-53
2022/04/18 11:59:06;;;;;;;3.67;2.90;;;;;;;;;;5009775;28;20657;-53
2022/04/18 12:07:01;;;;;;;3.67;2.90;;;;;;;;;;5027565;28;20245;-53
2022/04/18 12:09:28;;;;;;;3.70;3.37;;;;;;;;;;5011651;28;20246;-53
2022/04/18 12:11:54;;;;;;;3.17;2.97;;;;;;;;;;5026398;28;20182;-53
2022/04/18 12:14:20;;;;;;;3.70;3.40;;;;;;;;;;5023855;28;20183;-54
2022/04/18 12:16:47;;;;;;;3.80;3.33;;;;;;;;;;5021602;28;20178;-53
2022/04/18 12:19:17;;;;;;;3.20;3.00;;;;;;;;;;5028546;28;20185;-53
2022/04/18 12:21:44;;;;;;;3.13;2.83;;;;;;;;;;5021997;28;20182;-53
2022/04/18 12:24:10;;;;;;;3.43;3.17;;;;;;;;;;5025445;28;20689;-52
2022/04/18 12:26:38;;;;;;;3.43;3.23;;;;;;;;;;5023488;28;20597;-53
2022/04/18 12:29:08;;;;;;;3.30;3.03;;;;;;;;;;5020878;28;20182;-53
2022/04/18 12:31:38;;;;;;;3.60;3.30;;;;;;;;;;5024137;28;20658;-52
2022/04/18 12:34:04;;;;;;;5.17;3.43;;;;;;;;;;5012234;28;20820;-53
2022/04/18 12:36:33;;;;;;;3.60;3.30;;;;;;;;;;5017147;28;20635;-53
2022/04/18 12:39:00;;;;;;;3.60;3.40;;;;;;;;;;5016888;28;20194;-53
2022/04/18 12:41:27;;;;;;;3.53;3.23;;;;;;;;;;5017804;28;20186;-53
2022/04/18 12:43:54;;;;;;;2.90;2.70;;;;;;;;;;5014672;28;20601;-57
2022/04/18 12:46:26;;;;;;;3.00;2.80;;;;;;;;;;5027423;28;20186;-52
2022/04/18 12:48:53;;;;;;;2.83;2.63;;;;;;;;;;5012646;28;20190;-53
2022/04/18 12:51:30;;;;;;;3.70;2.83;;;;;;;;;;5019021;28;20273;-53
2022/04/18 12:53:56;;;;;;;3.40;3.20;;;;;;;;;;5023896;28;20265;-53
2022/04/18 12:56:23;;;;;;;4.80;3.80;;;;;;;;;;5018355;28;20201;-53
2022/04/18 12:58:59;;;;;;;4.20;2.60;;;;;;;;;;4997847;28;20207;-53
2022/04/18 13:01:32;;;;;;;3.13;2.93;;;;;;;;;;5016477;28;20679;-53
2022/04/18 13:03:58;;;;;;;2.87;2.67;;;;;;;;;;5016995;28;20204;-53
2022/04/18 13:06:30;;;;;;;4.93;3.00;;;;;;;;;;5019808;28;20193;-53
2022/04/18 13:08:57;;;;;;;3.23;2.90;;;;;;;;;;5010583;28;20174;-53
2022/04/18 13:11:24;;;;;;;2.80;2.60;;;;;;;;;;5013353;28;20681;-53
2022/04/18 13:13:50;;;;;;;3.10;2.80;;;;;;;;;;5025086;28;20189;-52
2022/04/18 13:16:21;;;;;;;3.13;2.93;;;;;;;;;;5023161;28;20582;-52
2022/04/18 13:18:47;;;;;;;2.73;2.53;;;;;;;;;;5008734;28;20711;-51
2022/04/18 13:21:14;;;;;;;3.77;2.97;;;;;;;;;;5017724;28;20199;-51
2022/04/18 13:23:40;;;;;;;2.77;2.57;;;;;;;;;;5013103;28;20712;-52
2022/04/18 13:26:06;;;;;;;3.03;2.83;;;;;;;;;;5013890;28;20232;-52
2022/04/18 13:28:37;;;;;;;3.03;2.83;;;;;;;;;;5025158;28;20183;-52
2022/04/18 13:31:04;;;;;;;3.27;3.00;;;;;;;;;;5025167;28;20213;-52
2022/04/18 13:33:30;;;;;;;3.40;3.20;;;;;;;;;;5019923;28;20515;-52
2022/04/18 13:38:41;;;;;;;3.13;2.93;;;;;;;;;;5014539;28;20201;-52
2022/04/18 13:41:08;;;;;;;2.87;2.67;;;;;;;;;;5019368;28;20183;-52
2022/04/18 13:43:34;;;;;;;3.57;3.27;;;;;;;;;;5015629;28;20311;-52
2022/04/18 13:46:03;;;;;;;3.13;2.93;;;;;;;;;;5021179;28;20258;-52
2022/04/18 13:48:29;;;;;;;3.03;2.83;;;;;;;;;;5019419;28;20187;-52
2022/04/18 13:50:55;;;;;;;3.80;2.90;;;;;;;;;;5026061;28;20236;-52
2022/04/18 13:53:22;;;;;;;4.57;3.40;;;;;;;;;;5019960;28;20737;-52
2022/04/18 13:55:48;;;;;;;2.97;2.77;;;;;;;;;;5009143;28;20190;-52
2022/04/18 13:58:16;;;;;;;3.63;3.30;;;;;;;;;;5012681;28;20289;-52
2022/04/18 14:00:43;;;;;;;3.37;3.10;;;;;;;;;;5018084;28;20195;-52
2022/04/18 14:03:10;;;;;;;7.23;6.73;;;;;;;;;;5021340;28;20259;-52
2022/04/18 14:05:40;;;;;;;3.50;3.20;;;;;;;;;;5010561;28;20351;-52
2022/04/18 14:08:06;;;;;;;4.03;3.30;;;;;;;;;;5006941;28;20182;-52
2022/04/18 14:10:35;;;;;;;3.60;3.30;;;;;;;;;;5028998;28;20189;-52
2022/04/18 14:13:02;;;;;;;4.97;3.50;;;;;;;;;;5021711;28;20289;-52
2022/04/18 14:20:59;;;;;;;3.63;3.37;;;;;;;;;;5018841;28;20232;-52
2022/04/18 14:23:25;;;;;;;5.13;4.73;;;;;;;;;;5018898;28;20840;-51
2022/04/18 14:25:51;;;;;;;4.87;4.37;;;;;;;;;;5015944;28;20192;-51
2022/04/18 14:28:17;;;;;;;8.37;7.47;;;;;;;;;;5026548;28;20268;-51
2022/04/18 14:30:44;;;;;;;4.50;4.10;;;;;;;;;;5016430;28;20600;-51
2022/04/18 14:33:10;;;;;;;4.37;4.03;;;;;;;;;;5018016;28;20671;-51
2022/04/18 14:35:36;;;;;;;5.50;5.10;;;;;;;;;;5014844;28;20631;-51
2022/04/18 14:38:04;;;;;;;4.70;4.30;;;;;;;;;;5013502;28;20194;-52
2022/04/18 14:40:30;;;;;;;5.83;3.63;;;;;;;;;;5007599;28;20179;-52
2022/04/18 14:42:56;;;;;;;4.53;4.13;;;;;;;;;;5015777;28;20675;-52
2022/04/18 14:45:23;;;;;;;5.83;4.07;;;;;;;;;;5011686;28;20202;-52
2022/04/18 14:47:49;;;;;;;4.00;3.60;;;;;;;;;;5017806;28;20195;-51
2022/04/18 14:50:17;;;;;;;6.00;5.40;;;;;;;;;;5022405;28;20651;-51
2022/04/18 14:52:43;;;;;;;4.50;4.10;;;;;;;;;;5022710;28;20672;-51
2022/04/18 14:55:09;;;;;;;28.80;21.63;;;;;;;;;;5018083;28;20236;-52
2022/04/18 14:57:35;;;;;;;4.27;3.97;;;;;;;;;;5021557;28;20210;-52
2022/04/18 15:00:02;;;;;;;4.10;3.80;;;;;;;;;;5018473;28;20187;-51
2022/04/18 15:02:28;;;;;;;4.70;3.83;;;;;;;;;;5022779;28;20186;-52
2022/04/18 15:04:55;;;;;;;3.97;3.63;;;;;;;;;;5021867;28;20175;-52
2022/04/18 15:07:21;;;;;;;5.30;3.70;;;;;;;;;;5024981;28;20626;-52
2022/04/18 15:09:47;;;;;;;4.10;3.70;;;;;;;;;;5022272;28;20652;-52
2022/04/18 15:12:14;;;;;;;4.43;3.73;;;;;;;;;;5029498;28;20639;-52
2022/04/18 15:14:40;;;;;;;16.83;12.23;;;;;;;;;;5022555;28;20239;-52
2022/04/18 15:17:07;;;;;;;20.67;18.50;;;;;;;;;;5021145;28;20197;-52
2022/04/18 15:19:33;;;;;;;6.37;5.77;;;;;;;;;;5019386;28;20247;-52
2022/04/18 15:22:01;;;;;;;11.33;10.23;;;;;;;;;;5021293;28;20938;-52